BAW253 MYNN-MBPV
Flight info
| Callsign | BAW253 |
|---|---|
| Flight time | 0h 51m |
| Altitude | 37000 |
| Route | BOSAR DCT SOLEI |
| Aircraft | B77W/H-SDE1E2E3FGHIJ2J3J4J5M1RWXY/LB1D1 |
Departure
| Time | 2026-05-05 09:12 |
|---|---|
| Airport | Lynden Pindling International Airport (MYNN) |
Arrival
| Time | 2026-05-05 10:03 |
|---|---|
| Airport | Providenciales International Airport (MBPV) |
| Time | Latitude | Longitude | Altitude | Speed | Heading |
|---|---|---|---|---|---|
| 2026-05-05 09:07 | 25.05024 | -77.46885 | -15 ft | 0 kts | 352° |
| 2026-05-05 09:07 | 25.05023 | -77.46885 | 22 ft | 0 kts | 352° |
| 2026-05-05 09:08 | 25.05009 | -77.46883 | 26 ft | 0 kts | 352° |
| 2026-05-05 09:08 | 25.04996 | -77.46881 | 25 ft | 0 kts | 352° |
| 2026-05-05 09:08 | 25.04982 | -77.46879 | 24 ft | 0 kts | 347° |
| 2026-05-05 09:08 | 25.04972 | -77.46869 | 26 ft | 0 kts | 289° |
| 2026-05-05 09:09 | 25.04972 | -77.46859 | 27 ft | 0 kts | 262° |
| 2026-05-05 09:10 | 25.04970 | -77.46868 | 26 ft | 6 kts | 259° |
| 2026-05-05 09:10 | 25.04942 | -77.46913 | 25 ft | 8 kts | 221° |
| 2026-05-05 09:10 | 25.04894 | -77.46940 | 23 ft | 8 kts | 186° |
| 2026-05-05 09:10 | 25.04830 | -77.46949 | 25 ft | 11 kts | 205° |
| 2026-05-05 09:11 | 25.04785 | -77.47028 | 28 ft | 9 kts | 252° |
| 2026-05-05 09:11 | 25.04739 | -77.47057 | 27 ft | 10 kts | 167° |
| 2026-05-05 09:11 | 25.04654 | -77.46981 | 30 ft | 38 kts | 135° |
| 2026-05-05 09:11 | 25.04168 | -77.46441 | 26 ft | 160 kts | 135° |
| 2026-05-05 09:12 | 25.03181 | -77.45343 | 602 ft | 230 kts | 136° |
| 2026-05-05 09:12 | 25.02099 | -77.44018 | 2209 ft | 239 kts | 129° |
| 2026-05-05 09:12 | 25.01090 | -77.42499 | 3458 ft | 251 kts | 127° |
| 2026-05-05 09:12 | 25.00064 | -77.40874 | 4287 ft | 265 kts | 126° |
| 2026-05-05 09:13 | 24.98988 | -77.39166 | 5203 ft | 276 kts | 126° |
| 2026-05-05 09:13 | 24.97876 | -77.37411 | 6180 ft | 283 kts | 127° |
| 2026-05-05 09:13 | 24.96734 | -77.35621 | 7137 ft | 288 kts | 127° |
| 2026-05-05 09:13 | 24.95565 | -77.33799 | 8095 ft | 294 kts | 128° |
| 2026-05-05 09:14 | 24.94382 | -77.31965 | 9022 ft | 300 kts | 128° |
| 2026-05-05 09:14 | 24.93155 | -77.30069 | 9979 ft | 306 kts | 128° |
| 2026-05-05 09:14 | 24.91893 | -77.28126 | 10710 ft | 320 kts | 129° |
| 2026-05-05 09:14 | 24.90533 | -77.26041 | 10990 ft | 350 kts | 128° |
| 2026-05-05 09:15 | 24.89047 | -77.23767 | 11284 ft | 377 kts | 128° |
| 2026-05-05 09:15 | 24.87490 | -77.21378 | 12021 ft | 390 kts | 128° |
| 2026-05-05 09:15 | 24.85890 | -77.18919 | 12894 ft | 398 kts | 128° |
| 2026-05-05 09:15 | 24.84288 | -77.16459 | 13813 ft | 403 kts | 128° |
| 2026-05-05 09:16 | 24.82642 | -77.13933 | 14646 ft | 409 kts | 129° |
| 2026-05-05 09:16 | 24.80964 | -77.11362 | 15434 ft | 417 kts | 129° |
| 2026-05-05 09:16 | 24.79255 | -77.08748 | 16254 ft | 424 kts | 129° |
| 2026-05-05 09:16 | 24.77521 | -77.06096 | 17057 ft | 430 kts | 129° |
| 2026-05-05 09:17 | 24.75757 | -77.03400 | 17881 ft | 437 kts | 129° |
| 2026-05-05 09:17 | 24.73962 | -77.00658 | 18633 ft | 443 kts | 129° |
| 2026-05-05 09:17 | 24.72145 | -76.97883 | 19350 ft | 449 kts | 129° |
| 2026-05-05 09:17 | 24.70313 | -76.95086 | 20080 ft | 454 kts | 129° |
| 2026-05-05 09:18 | 24.68475 | -76.92282 | 20795 ft | 459 kts | 129° |
| 2026-05-05 09:18 | 24.66597 | -76.89418 | 21497 ft | 464 kts | 130° |
| 2026-05-05 09:18 | 24.64689 | -76.86511 | 22199 ft | 470 kts | 130° |
| 2026-05-05 09:18 | 24.62753 | -76.83584 | 22884 ft | 475 kts | 130° |
| 2026-05-05 09:19 | 24.60746 | -76.80681 | 23534 ft | 480 kts | 132° |
| 2026-05-05 09:19 | 24.58680 | -76.77776 | 24089 ft | 484 kts | 132° |
| 2026-05-05 09:19 | 24.57298 | -76.75850 | 24470 ft | 487 kts | 132° |
| 2026-05-05 09:19 | 24.55192 | -76.72919 | 25040 ft | 491 kts | 132° |
| 2026-05-05 09:20 | 24.52377 | -76.68990 | 25802 ft | 496 kts | 132° |
| 2026-05-05 09:20 | 24.50243 | -76.65998 | 26366 ft | 500 kts | 132° |
| 2026-05-05 09:20 | 24.48812 | -76.63986 | 26731 ft | 503 kts | 131° |
| 2026-05-05 09:20 | 24.46644 | -76.60935 | 27254 ft | 507 kts | 131° |
| 2026-05-05 09:21 | 24.44465 | -76.57865 | 27770 ft | 512 kts | 131° |
| 2026-05-05 09:21 | 24.41549 | -76.53757 | 28441 ft | 518 kts | 131° |
| 2026-05-05 09:21 | 24.40050 | -76.51646 | 28775 ft | 520 kts | 131° |
| 2026-05-05 09:21 | 24.37814 | -76.48501 | 29274 ft | 524 kts | 131° |
| 2026-05-05 09:22 | 24.35562 | -76.45334 | 29746 ft | 528 kts | 131° |
| 2026-05-05 09:22 | 24.33288 | -76.42141 | 30191 ft | 532 kts | 131° |
| 2026-05-05 09:22 | 24.31001 | -76.38931 | 30550 ft | 536 kts | 131° |
| 2026-05-05 09:22 | 24.28724 | -76.35737 | 30949 ft | 538 kts | 131° |
| 2026-05-05 09:23 | 24.26423 | -76.32510 | 31442 ft | 537 kts | 131° |
| 2026-05-05 09:23 | 24.24124 | -76.29287 | 31979 ft | 535 kts | 131° |
| 2026-05-05 09:23 | 24.21834 | -76.26080 | 32538 ft | 534 kts | 131° |
| 2026-05-05 09:23 | 24.19544 | -76.22875 | 33016 ft | 534 kts | 131° |
| 2026-05-05 09:24 | 24.17256 | -76.19677 | 33515 ft | 533 kts | 131° |
| 2026-05-05 09:24 | 24.14974 | -76.16489 | 34014 ft | 531 kts | 131° |
| 2026-05-05 09:24 | 24.12696 | -76.13309 | 34461 ft | 530 kts | 131° |
| 2026-05-05 09:24 | 24.10428 | -76.10144 | 34900 ft | 528 kts | 132° |
| 2026-05-05 09:25 | 24.08161 | -76.06984 | 35317 ft | 527 kts | 132° |
| 2026-05-05 09:25 | 24.05888 | -76.03817 | 35719 ft | 526 kts | 132° |
| 2026-05-05 09:25 | 24.03633 | -76.00677 | 36122 ft | 524 kts | 132° |
| 2026-05-05 09:25 | 24.01381 | -75.97544 | 36521 ft | 523 kts | 132° |
| 2026-05-05 09:26 | 23.99133 | -75.94418 | 36890 ft | 522 kts | 132° |
| 2026-05-05 09:26 | 23.96881 | -75.91289 | 37043 ft | 526 kts | 132° |
| 2026-05-05 09:26 | 23.94640 | -75.88180 | 37005 ft | 526 kts | 132° |
| 2026-05-05 09:27 | 23.90134 | -75.81925 | 36994 ft | 520 kts | 132° |
| 2026-05-05 09:27 | 23.85674 | -75.75741 | 36999 ft | 517 kts | 132° |
| 2026-05-05 09:28 | 23.81222 | -75.69580 | 37005 ft | 516 kts | 132° |
| 2026-05-05 09:28 | 23.76777 | -75.63437 | 37010 ft | 515 kts | 132° |
| 2026-05-05 09:29 | 23.72325 | -75.57291 | 37010 ft | 516 kts | 132° |
| 2026-05-05 09:29 | 23.67895 | -75.51182 | 37008 ft | 516 kts | 132° |
| 2026-05-05 09:30 | 23.63429 | -75.45031 | 37010 ft | 517 kts | 132° |
| 2026-05-05 09:30 | 23.58952 | -75.38873 | 37009 ft | 517 kts | 132° |
| 2026-05-05 09:31 | 23.54480 | -75.32728 | 37009 ft | 517 kts | 132° |
| 2026-05-05 09:31 | 23.49998 | -75.26576 | 37007 ft | 518 kts | 132° |
| 2026-05-05 09:32 | 23.45532 | -75.20455 | 37010 ft | 518 kts | 132° |
| 2026-05-05 09:32 | 23.41039 | -75.14305 | 37002 ft | 518 kts | 132° |
| 2026-05-05 09:33 | 23.36550 | -75.08167 | 37002 ft | 518 kts | 132° |
| 2026-05-05 09:33 | 23.32078 | -75.02059 | 37002 ft | 518 kts | 132° |
| 2026-05-05 09:34 | 23.27583 | -74.95927 | 37002 ft | 518 kts | 132° |
| 2026-05-05 09:34 | 23.23083 | -74.89798 | 37000 ft | 518 kts | 132° |
| 2026-05-05 09:35 | 23.18584 | -74.83675 | 36991 ft | 518 kts | 132° |
| 2026-05-05 09:35 | 23.11826 | -74.74493 | 36992 ft | 519 kts | 132° |
| 2026-05-05 09:36 | 23.07341 | -74.68409 | 37006 ft | 519 kts | 132° |
| 2026-05-05 09:36 | 23.02820 | -74.62282 | 37004 ft | 520 kts | 132° |
| 2026-05-05 09:37 | 22.98287 | -74.56148 | 37003 ft | 520 kts | 132° |
| 2026-05-05 09:37 | 22.93778 | -74.50049 | 36580 ft | 513 kts | 132° |
| 2026-05-05 09:38 | 22.91578 | -74.47075 | 36156 ft | 509 kts | 132° |
| 2026-05-05 09:38 | 22.89368 | -74.44091 | 35733 ft | 504 kts | 132° |
| 2026-05-05 09:38 | 22.87180 | -74.41138 | 35300 ft | 500 kts | 132° |
| 2026-05-05 09:38 | 22.85003 | -74.38203 | 34857 ft | 497 kts | 131° |
| 2026-05-05 09:39 | 22.82847 | -74.35298 | 34410 ft | 493 kts | 131° |
| 2026-05-05 09:39 | 22.80700 | -74.32407 | 33972 ft | 490 kts | 131° |
| 2026-05-05 09:39 | 22.78564 | -74.29533 | 33461 ft | 487 kts | 131° |
| 2026-05-05 09:39 | 22.76443 | -74.26679 | 32998 ft | 483 kts | 131° |
| 2026-05-05 09:40 | 22.74343 | -74.23856 | 32555 ft | 479 kts | 131° |
| 2026-05-05 09:40 | 22.72258 | -74.21053 | 32126 ft | 476 kts | 131° |
| 2026-05-05 09:40 | 22.70215 | -74.18309 | 31688 ft | 472 kts | 131° |
| 2026-05-05 09:40 | 22.68155 | -74.15543 | 31261 ft | 469 kts | 131° |
| 2026-05-05 09:41 | 22.66109 | -74.12799 | 30831 ft | 466 kts | 131° |
| 2026-05-05 09:41 | 22.64070 | -74.10065 | 30409 ft | 464 kts | 131° |
| 2026-05-05 09:41 | 22.62050 | -74.07358 | 29967 ft | 462 kts | 131° |
| 2026-05-05 09:41 | 22.60035 | -74.04659 | 29463 ft | 459 kts | 131° |
| 2026-05-05 09:42 | 22.58038 | -74.01985 | 29020 ft | 456 kts | 131° |
| 2026-05-05 09:42 | 22.56052 | -73.99327 | 28552 ft | 452 kts | 131° |
| 2026-05-05 09:42 | 22.54107 | -73.96724 | 28119 ft | 449 kts | 131° |
| 2026-05-05 09:42 | 22.52152 | -73.94111 | 27689 ft | 445 kts | 131° |
| 2026-05-05 09:43 | 22.50204 | -73.91507 | 27260 ft | 442 kts | 132° |
| 2026-05-05 09:43 | 22.48273 | -73.88928 | 26834 ft | 439 kts | 132° |
| 2026-05-05 09:43 | 22.46358 | -73.86373 | 26403 ft | 436 kts | 132° |
| 2026-05-05 09:43 | 22.44453 | -73.83831 | 25986 ft | 434 kts | 132° |
| 2026-05-05 09:44 | 22.42556 | -73.81300 | 25573 ft | 431 kts | 132° |
| 2026-05-05 09:44 | 22.40663 | -73.78778 | 25147 ft | 429 kts | 132° |
| 2026-05-05 09:44 | 22.38812 | -73.76311 | 24713 ft | 427 kts | 132° |
| 2026-05-05 09:44 | 22.36939 | -73.73818 | 24295 ft | 426 kts | 132° |
| 2026-05-05 09:45 | 22.35076 | -73.71338 | 23868 ft | 424 kts | 132° |
| 2026-05-05 09:45 | 22.33217 | -73.68865 | 23418 ft | 423 kts | 132° |
| 2026-05-05 09:45 | 22.31366 | -73.66403 | 22948 ft | 421 kts | 132° |
| 2026-05-05 09:45 | 22.29526 | -73.63957 | 22503 ft | 418 kts | 132° |
| 2026-05-05 09:46 | 22.27697 | -73.61527 | 22070 ft | 415 kts | 132° |
| 2026-05-05 09:46 | 22.25908 | -73.59150 | 21651 ft | 412 kts | 132° |
| 2026-05-05 09:46 | 22.24106 | -73.56758 | 21239 ft | 409 kts | 132° |
| 2026-05-05 09:46 | 22.22316 | -73.54382 | 20831 ft | 407 kts | 133° |
| 2026-05-05 09:47 | 22.20536 | -73.52022 | 20400 ft | 404 kts | 133° |
| 2026-05-05 09:47 | 22.18763 | -73.49672 | 19994 ft | 402 kts | 133° |
| 2026-05-05 09:47 | 22.16998 | -73.47334 | 19576 ft | 400 kts | 133° |
| 2026-05-05 09:47 | 22.15242 | -73.45008 | 19152 ft | 399 kts | 133° |
| 2026-05-05 09:48 | 22.13488 | -73.42686 | 18723 ft | 398 kts | 133° |
| 2026-05-05 09:48 | 22.11739 | -73.40371 | 18290 ft | 397 kts | 133° |
| 2026-05-05 09:48 | 22.09995 | -73.38066 | 17810 ft | 396 kts | 133° |
| 2026-05-05 09:48 | 22.08261 | -73.35773 | 17359 ft | 393 kts | 132° |
| 2026-05-05 09:49 | 22.06554 | -73.33516 | 16930 ft | 391 kts | 132° |
| 2026-05-05 09:49 | 22.04843 | -73.31255 | 16508 ft | 389 kts | 132° |
| 2026-05-05 09:49 | 22.03133 | -73.28997 | 16081 ft | 386 kts | 132° |
| 2026-05-05 09:49 | 22.01440 | -73.26762 | 15651 ft | 384 kts | 132° |
| 2026-05-05 09:50 | 21.99747 | -73.24528 | 15232 ft | 382 kts | 132° |
| 2026-05-05 09:50 | 21.98068 | -73.22314 | 14820 ft | 380 kts | 132° |
| 2026-05-05 09:50 | 21.96397 | -73.20111 | 14369 ft | 379 kts | 132° |
| 2026-05-05 09:50 | 21.94731 | -73.17915 | 13948 ft | 378 kts | 132° |
| 2026-05-05 09:51 | 21.93086 | -73.15748 | 13495 ft | 377 kts | 132° |
| 2026-05-05 09:51 | 21.91430 | -73.13568 | 13045 ft | 374 kts | 131° |
| 2026-05-05 09:51 | 21.89787 | -73.11404 | 12597 ft | 372 kts | 131° |
| 2026-05-05 09:51 | 21.88151 | -73.09251 | 12183 ft | 370 kts | 131° |
| 2026-05-05 09:52 | 21.86527 | -73.07115 | 11773 ft | 367 kts | 131° |
| 2026-05-05 09:52 | 21.84915 | -73.04995 | 11343 ft | 365 kts | 131° |
| 2026-05-05 09:52 | 21.83311 | -73.02885 | 10931 ft | 361 kts | 130° |
| 2026-05-05 09:52 | 21.82046 | -73.00586 | 10511 ft | 358 kts | 111° |
| 2026-05-05 09:53 | 21.81555 | -72.97989 | 10307 ft | 350 kts | 95° |
| 2026-05-05 09:53 | 21.81416 | -72.95410 | 10155 ft | 340 kts | 94° |
| 2026-05-05 09:53 | 21.81273 | -72.92904 | 9969 ft | 332 kts | 94° |
| 2026-05-05 09:53 | 21.81130 | -72.90466 | 9733 ft | 327 kts | 94° |
| 2026-05-05 09:54 | 21.80985 | -72.88048 | 9580 ft | 318 kts | 94° |
| 2026-05-05 09:54 | 21.80843 | -72.85716 | 9501 ft | 307 kts | 95° |
| 2026-05-05 09:54 | 21.80705 | -72.83460 | 9385 ft | 297 kts | 95° |
| 2026-05-05 09:54 | 21.80568 | -72.81265 | 9222 ft | 289 kts | 95° |
| 2026-05-05 09:55 | 21.80434 | -72.79125 | 9000 ft | 285 kts | 95° |
| 2026-05-05 09:55 | 21.80300 | -72.77001 | 8697 ft | 284 kts | 95° |
| 2026-05-05 09:55 | 21.80166 | -72.74887 | 8390 ft | 283 kts | 95° |
| 2026-05-05 09:55 | 21.80032 | -72.72781 | 8091 ft | 281 kts | 94° |
| 2026-05-05 09:56 | 21.79901 | -72.70716 | 7813 ft | 279 kts | 94° |
| 2026-05-05 09:56 | 21.79768 | -72.68638 | 7524 ft | 278 kts | 94° |
| 2026-05-05 09:56 | 21.79636 | -72.66570 | 7248 ft | 276 kts | 94° |
| 2026-05-05 09:56 | 21.79504 | -72.64511 | 6970 ft | 275 kts | 94° |
| 2026-05-05 09:57 | 21.79373 | -72.62468 | 6694 ft | 273 kts | 94° |
| 2026-05-05 09:57 | 21.79242 | -72.60432 | 6418 ft | 272 kts | 94° |
| 2026-05-05 09:57 | 21.79111 | -72.58401 | 6024 ft | 275 kts | 94° |
| 2026-05-05 09:57 | 21.78975 | -72.56302 | 5331 ft | 289 kts | 94° |
| 2026-05-05 09:58 | 21.78833 | -72.54101 | 4708 ft | 299 kts | 94° |
| 2026-05-05 09:58 | 21.78692 | -72.51921 | 4493 ft | 280 kts | 94° |
| 2026-05-05 09:58 | 21.78563 | -72.49925 | 4325 ft | 255 kts | 94° |
| 2026-05-05 09:58 | 21.78445 | -72.48112 | 4133 ft | 232 kts | 94° |
| 2026-05-05 09:59 | 21.78336 | -72.46443 | 3734 ft | 218 kts | 94° |
| 2026-05-05 09:59 | 21.78250 | -72.44816 | 3113 ft | 218 kts | 93° |
| 2026-05-05 09:59 | 21.78174 | -72.43230 | 2673 ft | 208 kts | 93° |
| 2026-05-05 09:59 | 21.78103 | -72.41740 | 2410 ft | 191 kts | 93° |
| 2026-05-05 10:00 | 21.78037 | -72.40373 | 2160 ft | 175 kts | 93° |
| 2026-05-05 10:00 | 21.77977 | -72.39145 | 2016 ft | 152 kts | 93° |
| 2026-05-05 10:00 | 21.77924 | -72.38048 | 1775 ft | 143 kts | 94° |
| 2026-05-05 10:00 | 21.77871 | -72.36966 | 1636 ft | 148 kts | 94° |
| 2026-05-05 10:01 | 21.77817 | -72.35862 | 1433 ft | 150 kts | 93° |
| 2026-05-05 10:01 | 21.77764 | -72.34755 | 1231 ft | 146 kts | 94° |
| 2026-05-05 10:01 | 21.77710 | -72.33677 | 1048 ft | 142 kts | 94° |
| 2026-05-05 10:01 | 21.77657 | -72.32602 | 867 ft | 145 kts | 94° |
| 2026-05-05 10:02 | 21.77604 | -72.31515 | 665 ft | 143 kts | 92° |
| 2026-05-05 10:02 | 21.77552 | -72.30438 | 452 ft | 144 kts | 92° |
| 2026-05-05 10:02 | 21.77506 | -72.29372 | 201 ft | 144 kts | 93° |
| 2026-05-05 10:02 | 21.77440 | -72.28321 | 54 ft | 137 kts | 94° |
| 2026-05-05 10:03 | 21.77404 | -72.27529 | 37 ft | 68 kts | 92° |
| 2026-05-05 10:03 | 21.77394 | -72.27276 | 35 ft | 20 kts | 87° |
| 2026-05-05 10:03 | 21.77476 | -72.27199 | 35 ft | 12 kts | 18° |
| 2026-05-05 10:03 | 21.77535 | -72.27170 | 34 ft | 7 kts | 32° |
| 2026-05-05 10:04 | 21.77550 | -72.27159 | 32 ft | 0 kts | 34° |